Aérodrome :
LOGIN :

S'inscrire | Disclaimer

   EN    FR    IT 

 










Légende :    VFR   VFR Marginal   IFR   IFR Intensif   IFR Très Intensif
Visi : 
Plafond : 
>= 8 km
>= 3000ft
5 à 8 km
1000 à 3000 ft
1500m à 5 km
500 à 1000 ft
800 à 1500m
200 à 500 ft
< 800m
< 200 ft
Symboles :   Orages  Brouillard  Fortes neiges  Fortes précipitations  Vent > 20 kt
SIGMETs :   Divers  Orages  Givrage  Turbulence  Onde Orograph.  Cendres Volcan.






- Altitude de l'aérodrome : 597 ft
- Code IATA : PDV


LBPD - Plovdiv

DERNIER METAR :
  • 060930Z AUTO 00000KT 9999 SCT050 29/17 Q1008 NOSIG

METARs EXPIRÉS :
  • 060900Z AUTO VRB02KT 9999 SCT046 SCT059 BKN071 29/17 Q1008 NOSIG
  • 060830Z AUTO VRB03KT 9999 FEW056 28/18 Q1009 NOSIG
  • 060800Z AUTO VRB02KT 9999 SCT063 28/18 Q1009 NOSIG
  • 060730Z AUTO VRB03KT 9999 SCT056 BKN069 27/18 Q1009 NOSIG
  • 060700Z AUTO 28005KT 250V320 9999 BKN054 27/19 Q1009 NOSIG

TAF TAF LBPD
Valide du 06 à 06h jusqu'au 07 à 06h UTC


060500Z 0606/0706 30008KT 9999 BKN050
TEMPO 0611/0617 VRB16G28KT 4000 TSRA SCT030CB BKN040



MET'MAP, la Météo Aéronautique d'un coup d'oeil ! - Copyright ORBIFLY Décembre 2007 - Disclaimer

ORBIFLY MET'MAP TEAM :

Programmation & Développement : Alexandra Zaïnal
Sur une idée originale de : Baudouin d'Aumeries
Assistance à la programmation : Marc-Olivier Méhu
Soutien technique & logistique : Manuel Goepfert

Contact : metmap@orbifly.com




SOURCES & CREDITS :

   NOAA